Time;durP1;ratioP1;P1;durP2;ratioP2;P2;SDS_P1;SDS_P2;PMS_P1;PMS_P2;Temp;Humidity;BMP_temperature;BMP_pressure;BME280_temperature;BME280_humidity;BME280_pressure;Samples;Min_cycle;Max_cycle;Signal;HPM_P1;HPM_P2
2022/07/10 00:02:00;;;;;;;3.90;1.90;;;;;;;14.74;67.78;100280.38;106006;1271;25275;-78
2022/07/10 00:04:26;;;;;;;4.50;1.80;;;;;;;14.70;67.64;100280.11;106137;1272;24280;-74
2022/07/10 00:06:52;;;;;;;3.20;1.90;;;;;;;14.67;67.82;100272.94;106288;1272;25370;-77
2022/07/10 00:09:18;;;;;;;2.30;1.80;;;;;;;14.66;68.07;100280.40;105995;1273;24244;-76
2022/07/10 00:11:44;;;;;;;2.50;2.10;;;;;;;14.67;68.20;100282.51;106063;1273;22665;-77
2022/07/10 00:14:11;;;;;;;2.10;1.90;;;;;;;14.63;68.19;100280.33;105776;1277;22615;-77
2022/07/10 00:16:37;;;;;;;2.50;1.80;;;;;;;14.57;68.26;100277.11;105867;1278;24454;-75
2022/07/10 00:19:03;;;;;;;2.50;1.50;;;;;;;14.53;68.56;100275.45;105892;1279;22750;-77
2022/07/10 00:21:29;;;;;;;4.50;2.30;;;;;;;14.53;68.60;100277.05;105827;1278;23969;-78
2022/07/10 00:23:55;;;;;;;3.40;1.70;;;;;;;14.53;68.70;100276.69;105891;1277;22568;-81
2022/07/10 00:26:22;;;;;;;1.60;1.50;;;;;;;14.50;68.80;100278.70;105731;1278;22757;-77
2022/07/10 00:28:48;;;;;;;2.70;2.00;;;;;;;14.49;68.90;100276.08;105912;1278;24311;-81
2022/07/10 00:31:14;;;;;;;3.00;1.70;;;;;;;14.49;69.09;100274.31;105729;1278;22728;-80
2022/07/10 00:33:40;;;;;;;3.20;2.40;;;;;;;14.50;69.20;100266.84;106126;1273;22814;-77
2022/07/10 00:36:07;;;;;;;5.00;2.00;;;;;;;14.49;69.22;100261.19;106069;1274;22638;-79
2022/07/10 00:38:34;;;;;;;2.80;2.10;;;;;;;14.47;69.32;100257.52;106062;1273;24173;-80
2022/07/10 00:41:00;;;;;;;3.30;1.80;;;;;;;14.47;69.40;100259.63;106206;1271;25387;-79
2022/07/10 00:43:26;;;;;;;4.00;1.80;;;;;;;14.47;69.53;100256.81;106105;1273;23655;-79
2022/07/10 00:45:52;;;;;;;1.80;1.70;;;;;;;14.46;69.57;100256.32;106193;1271;25716;-78
2022/07/10 00:48:18;;;;;;;2.90;1.70;;;;;;;14.42;69.69;100255.20;106063;1271;22554;-78
2022/07/10 00:50:46;;;;;;;3.90;2.20;;;;;;;14.41;69.95;100253.10;106019;1273;23287;-78
2022/07/10 00:53:13;;;;;;;2.30;1.90;;;;;;;14.35;69.82;100250.77;106042;1271;24445;-79
2022/07/10 00:55:41;;;;;;;3.50;2.10;;;;;;;14.31;69.99;100254.06;106008;1273;23721;-80
2022/07/10 00:58:09;;;;;;;3.50;2.00;;;;;;;14.27;70.11;100254.33;105910;1273;22547;-78
2022/07/10 01:00:39;;;;;;;2.80;1.70;;;;;;;14.23;70.25;100253.55;106116;1273;22560;-78
2022/07/10 01:03:06;;;;;;;4.40;2.00;;;;;;;14.24;70.39;100249.28;105412;1281;25438;-78
2022/07/10 01:05:32;;;;;;;3.00;2.20;;;;;;;14.22;70.55;100242.96;105585;1279;24332;-77
2022/07/10 01:07:58;;;;;;;3.50;1.90;;;;;;;14.21;70.77;100246.00;105587;1279;22807;-76
2022/07/10 01:10:24;;;;;;;3.10;2.00;;;;;;;14.21;70.92;100242.81;105505;1278;25263;-76
2022/07/10 01:12:51;;;;;;;2.20;2.00;;;;;;;14.18;71.02;100240.42;105550;1278;24313;-76
2022/07/10 01:15:17;;;;;;;2.60;2.00;;;;;;;14.13;71.09;100238.61;105704;1278;25444;-77
2022/07/10 01:17:44;;;;;;;2.60;1.90;;;;;;;14.06;71.25;100236.09;105579;1279;23414;-75
2022/07/10 01:20:10;;;;;;;2.60;2.10;;;;;;;14.04;71.45;100231.55;105444;1284;25556;-77
2022/07/10 01:22:37;;;;;;;3.90;2.10;;;;;;;14.05;71.52;100234.72;105722;1277;23950;-77
2022/07/10 01:25:05;;;;;;;2.20;2.00;;;;;;;14.05;71.64;100232.42;105665;1277;25397;-77
2022/07/10 01:27:31;;;;;;;2.70;1.70;;;;;;;14.05;71.82;100222.88;107062;1277;22597;-75
2022/07/10 01:29:58;;;;;;;3.10;1.80;;;;;;;14.09;71.80;100216.92;106414;1276;22796;-74
2022/07/10 01:32:25;;;;;;;3.40;2.00;;;;;;;14.09;71.84;100217.09;105981;1276;22556;-75
2022/07/10 01:34:52;;;;;;;3.90;2.20;;;;;;;14.16;71.92;100219.93;105887;1276;22529;-77
2022/07/10 01:37:18;;;;;;;2.80;2.10;;;;;;;14.20;71.79;100221.77;105884;1278;22541;-76
2022/07/10 01:39:44;;;;;;;3.40;2.10;;;;;;;14.19;71.91;100218.25;106195;1273;26900;-77
2022/07/10 01:42:10;;;;;;;5.80;2.20;;;;;;;14.20;71.94;100218.05;106463;1271;24133;-76
2022/07/10 01:44:36;;;;;;;3.60;1.90;;;;;;;14.20;71.87;100213.61;106264;1271;25531;-77
2022/07/10 01:47:03;;;;;;;2.40;1.70;;;;;;;14.20;71.96;100210.07;106116;1273;22710;-77
2022/07/10 01:49:29;;;;;;;1.80;1.70;;;;;;;14.18;71.79;100213.48;106123;1273;22546;-76
2022/07/10 01:51:55;;;;;;;2.90;1.90;;;;;;;14.16;71.91;100208.92;106879;1271;22697;-75
2022/07/10 01:54:21;;;;;;;2.90;2.00;;;;;;;14.17;72.00;100203.23;106452;1274;22701;-77
2022/07/10 01:56:48;;;;;;;2.40;1.80;;;;;;;14.20;71.94;100204.23;106517;1273;22692;-77
2022/07/10 01:59:14;;;;;;;2.70;1.80;;;;;;;14.23;72.03;100199.02;106184;1271;25856;-82
2022/07/10 02:01:41;;;;;;;2.50;2.10;;;;;;;14.29;72.00;100200.09;106462;1273;22585;-76
2022/07/10 02:06:52;;;;;;;2.80;1.90;;;;;;;14.28;71.80;100194.11;107642;1271;25376;-73
2022/07/10 02:09:19;;;;;;;2.50;1.90;;;;;;;14.28;71.71;100194.98;106967;1273;22538;-76
2022/07/10 02:11:45;;;;;;;2.50;2.00;;;;;;;14.30;71.72;100192.61;106268;1274;26517;-76
2022/07/10 02:14:11;;;;;;;2.50;1.70;;;;;;;14.30;71.57;100191.20;106967;1271;25318;-76
2022/07/10 02:16:38;;;;;;;2.20;1.40;;;;;;;14.28;71.48;100195.85;106802;1271;24406;-75
2022/07/10 02:19:04;;;;;;;1.80;1.60;;;;;;;14.20;71.47;100185.11;106842;1271;23101;-76
2022/07/10 02:21:30;;;;;;;2.20;1.70;;;;;;;14.24;71.70;100188.36;106862;1271;25459;-76
2022/07/10 02:23:57;;;;;;;2.00;1.80;;;;;;;14.29;71.57;100193.36;106429;1271;24244;-79
2022/07/10 02:26:23;;;;;;;3.40;2.00;;;;;;;14.28;71.29;100189.30;106457;1273;22570;-77
2022/07/10 02:28:50;;;;;;;3.30;2.10;;;;;;;14.28;71.34;100191.63;106419;1273;22582;-74
2022/07/10 02:31:16;;;;;;;2.60;1.60;;;;;;;14.26;71.34;100187.60;106244;1273;25655;-75
2022/07/10 02:33:43;;;;;;;3.00;1.90;;;;;;;14.27;71.32;100193.23;106363;1273;25410;-78
2022/07/10 02:36:09;;;;;;;1.70;1.60;;;;;;;14.28;71.23;100196.41;106094;1273;22572;-78
2022/07/10 02:38:36;;;;;;;1.70;1.60;;;;;;;14.29;71.28;100186.48;105910;1272;22543;-75
2022/07/10 02:41:02;;;;;;;2.50;2.20;;;;;;;14.29;71.16;100188.23;106115;1273;22590;-76
2022/07/10 02:43:29;;;;;;;1.90;1.60;;;;;;;14.28;71.07;100185.60;106084;1275;24148;-77
2022/07/10 02:45:55;;;;;;;1.70;1.50;;;;;;;14.27;71.25;100185.45;106122;1273;22646;-76
2022/07/10 02:48:22;;;;;;;2.00;1.70;;;;;;;14.27;71.03;100182.09;106074;1273;22551;-78
2022/07/10 02:50:48;;;;;;;5.10;1.90;;;;;;;14.24;71.18;100180.92;106118;1273;25269;-81
2022/07/10 02:53:14;;;;;;;3.40;2.30;;;;;;;14.17;71.12;100181.11;106196;1273;25374;-76
2022/07/10 02:55:41;;;;;;;5.70;2.20;;;;;;;14.11;71.42;100178.27;105789;1276;22781;-76
2022/07/10 02:58:09;;;;;;;3.90;2.20;;;;;;;14.10;71.55;100178.48;105894;1276;22998;-75
2022/07/10 03:00:37;;;;;;;2.20;2.00;;;;;;;14.10;71.50;100176.35;105848;1276;22538;-77
2022/07/10 03:03:03;;;;;;;3.80;2.00;;;;;;;14.07;71.58;100177.99;106009;1274;22772;-74
2022/07/10 03:05:29;;;;;;;2.60;2.10;;;;;;;14.09;71.90;100176.89;105931;1276;22619;-75
2022/07/10 03:07:56;;;;;;;2.90;2.10;;;;;;;14.11;71.85;100174.90;105835;1276;25449;-75
2022/07/10 03:10:22;;;;;;;3.50;2.00;;;;;;;14.12;71.91;100175.40;105759;1276;22616;-76
2022/07/10 03:12:48;;;;;;;3.80;2.10;;;;;;;14.10;71.87;100174.92;105781;1276;24233;-74
2022/07/10 03:15:15;;;;;;;2.40;1.90;;;;;;;14.10;71.91;100174.58;106019;1273;22559;-75
2022/07/10 03:17:41;;;;;;;3.60;1.90;;;;;;;14.10;71.90;100173.52;106159;1271;22607;-74
2022/07/10 03:20:09;;;;;;;2.80;2.20;;;;;;;14.10;72.09;100171.55;106076;1275;22554;-78
2022/07/10 03:22:36;;;;;;;3.80;2.20;;;;;;;14.10;72.08;100172.11;106093;1273;25396;-75
2022/07/10 03:25:02;;;;;;;2.90;2.20;;;;;;;14.10;72.05;100172.63;106084;1273;22483;-75
2022/07/10 03:27:28;;;;;;;3.80;2.20;;;;;;;14.10;72.12;100175.65;106118;1273;24236;-76
2022/07/10 03:29:55;;;;;;;5.00;2.30;;;;;;;14.05;71.97;100179.83;105962;1273;22538;-75
2022/07/10 03:32:21;;;;;;;2.50;1.90;;;;;;;14.00;72.21;100181.75;106334;1271;25461;-74
2022/07/10 03:34:47;;;;;;;4.50;2.20;;;;;;;13.99;72.23;100177.16;106254;1271;23365;-75
2022/07/10 03:37:13;;;;;;;4.60;2.40;;;;;;;14.02;72.46;100177.78;106192;1273;22547;-73
2022/07/10 03:39:40;;;;;;;3.30;2.30;;;;;;;14.02;72.62;100176.20;106090;1273;22584;-74
2022/07/10 03:42:06;;;;;;;3.30;2.50;;;;;;;14.04;72.56;100178.27;106151;1273;24318;-75
2022/07/10 03:44:33;;;;;;;4.30;2.40;;;;;;;14.04;72.43;100176.30;105986;1273;22547;-75
2022/07/10 03:46:59;;;;;;;4.20;2.20;;;;;;;14.06;72.57;100169.38;105942;1273;25259;-73
2022/07/10 03:49:26;;;;;;;2.00;1.70;;;;;;;14.06;72.29;100164.94;106145;1273;22566;-77
2022/07/10 03:51:53;;;;;;;4.70;2.10;;;;;;;14.06;72.46;100159.64;106079;1273;26598;-82
2022/07/10 03:54:19;;;;;;;3.70;2.60;;;;;;;14.13;72.49;100163.52;106139;1275;22547;-78
2022/07/10 03:59:30;;;;;;;2.50;2.20;;;;;;;14.20;72.33;100171.64;106265;1273;22923;-76
2022/07/10 04:01:56;;;;;;;5.50;2.60;;;;;;;14.22;72.24;100175.85;106355;1273;22817;-76
2022/07/10 04:04:22;;;;;;;3.80;2.20;;;;;;;14.21;72.32;100177.81;106440;1273;26614;-74
2022/07/10 04:06:49;;;;;;;2.60;1.60;;;;;;;14.22;72.22;100182.38;106439;1272;22624;-72
2022/07/10 04:09:15;;;;;;;4.60;2.40;;;;;;;14.23;72.18;100179.01;105901;1273;22562;-75
2022/07/10 04:11:41;;;;;;;2.60;2.00;;;;;;;14.25;72.18;100175.95;106104;1273;22718;-80
2022/07/10 04:14:07;;;;;;;3.60;2.10;;;;;;;14.31;72.07;100173.30;106102;1273;25358;-81
2022/07/10 04:16:33;;;;;;;5.60;2.10;;;;;;;14.36;71.98;100175.09;106276;1272;26505;-75
2022/07/10 04:19:00;;;;;;;4.20;2.10;;;;;;;14.37;71.65;100175.42;106133;1273;22758;-74
2022/07/10 04:21:26;;;;;;;3.60;2.20;;;;;;;14.38;71.52;100173.63;105815;1275;335039;-72
2022/07/10 04:23:52;;;;;;;5.70;2.20;;;;;;;14.39;71.29;100176.61;106225;1273;22846;-77
2022/07/10 04:26:18;;;;;;;4.40;2.20;;;;;;;14.45;71.11;100175.38;106298;1274;22575;-73
2022/07/10 04:28:45;;;;;;;5.80;2.10;;;;;;;14.49;70.62;100174.73;105977;1273;22494;-77
2022/07/10 04:31:11;;;;;;;3.10;2.50;;;;;;;14.50;70.33;100175.41;106254;1272;22474;-78
2022/07/10 04:33:37;;;;;;;4.30;2.30;;;;;;;14.50;70.08;100175.58;106300;1271;22998;-79
2022/07/10 04:36:03;;;;;;;4.00;2.30;;;;;;;14.54;70.02;100174.42;106174;1271;23282;-73
2022/07/10 04:38:31;;;;;;;3.90;1.50;;;;;;;14.61;69.83;100176.34;106314;1273;25607;-82
2022/07/10 04:40:58;;;;;;;3.90;2.50;;;;;;;14.64;69.50;100173.77;106184;1273;25525;-78
2022/07/10 04:43:24;;;;;;;4.20;1.70;;;;;;;14.69;69.50;100169.02;106179;1273;25489;-77
2022/07/10 04:45:52;;;;;;;2.20;1.40;;;;;;;14.74;69.31;100164.45;106287;1273;22550;-84
2022/07/10 04:48:18;;;;;;;4.00;1.90;;;;;;;14.79;69.08;100169.81;106150;1273;22544;-80
2022/07/10 04:50:44;;;;;;;5.10;2.00;;;;;;;14.78;68.89;100162.58;106304;1273;23945;-79
2022/07/10 04:53:12;;;;;;;3.50;1.80;;;;;;;14.78;68.77;100165.56;106278;1273;25950;-75
2022/07/10 04:55:38;;;;;;;3.20;1.40;;;;;;;14.83;68.80;100161.35;105674;1279;24509;-80
2022/07/10 04:58:04;;;;;;;2.80;1.90;;;;;;;14.85;68.64;100158.80;106003;1278;27068;-76
2022/07/10 05:00:30;;;;;;;3.90;2.20;;;;;;;14.88;68.60;100156.98;105739;1279;25504;-77
2022/07/10 05:02:56;;;;;;;5.90;1.80;;;;;;;14.86;68.39;100152.94;105741;1279;22529;-77
2022/07/10 05:05:23;;;;;;;6.10;2.60;;;;;;;14.84;68.17;100154.23;105763;1278;22820;-77
2022/07/10 05:07:50;;;;;;;3.60;1.90;;;;;;;14.87;68.07;100153.27;105206;1284;25500;-77
2022/07/10 05:10:17;;;;;;;5.50;2.20;;;;;;;14.94;67.87;100151.64;105256;1284;25560;-80
2022/07/10 05:12:43;;;;;;;3.10;1.70;;;;;;;15.01;67.69;100152.66;105482;1284;25459;-77
2022/07/10 05:15:10;;;;;;;3.80;1.60;;;;;;;15.08;67.48;100148.36;105372;1284;22576;-76
2022/07/10 05:17:36;;;;;;;6.30;2.10;;;;;;;15.21;67.39;100141.41;105190;1284;23337;-76
2022/07/10 05:20:02;;;;;;;5.90;2.70;;;;;;;15.32;67.01;100144.02;105506;1284;23121;-75
2022/07/10 05:22:30;;;;;;;5.90;1.90;;;;;;;15.40;66.47;100145.03;106054;1284;22676;-75
2022/07/10 05:24:56;;;;;;;4.40;2.70;;;;;;;15.50;66.28;100145.41;105939;1287;22730;-75
2022/07/10 05:27:22;;;;;;;3.10;1.50;;;;;;;15.58;65.54;100141.75;106903;1287;22557;-74
2022/07/10 05:29:48;;;;;;;3.40;1.50;;;;;;;15.62;64.65;100143.95;106742;1286;23820;-75
2022/07/10 05:32:15;;;;;;;6.50;1.50;;;;;;;15.60;64.31;100137.29;106720;1287;22688;-75
2022/07/10 05:34:41;;;;;;;4.30;1.30;;;;;;;15.62;64.07;100145.36;106054;1287;22640;-75
2022/07/10 05:37:07;;;;;;;3.80;1.10;;;;;;;15.59;63.84;100144.41;106065;1287;24370;-75
2022/07/10 05:39:34;;;;;;;2.90;1.40;;;;;;;15.56;63.73;100142.90;106315;1278;22735;-74
2022/07/10 05:42:02;;;;;;;2.60;1.20;;;;;;;15.63;63.70;100143.77;107580;1278;22905;-85
2022/07/10 05:44:29;;;;;;;3.50;1.30;;;;;;;15.63;63.49;100142.84;107539;1278;22886;-74
2022/07/10 05:46:55;;;;;;;3.10;1.30;;;;;;;15.66;63.76;100138.85;108458;1278;22511;-75
2022/07/10 05:49:21;;;;;;;3.40;1.30;;;;;;;15.73;63.90;100135.23;106703;1273;24270;-75
2022/07/10 05:51:47;;;;;;;4.20;1.30;;;;;;;15.80;63.61;100136.77;106350;1279;22705;-75
2022/07/10 05:54:13;;;;;;;2.30;1.20;;;;;;;15.87;63.44;100140.80;106398;1279;24085;-75
2022/07/10 05:56:40;;;;;;;1.20;1.00;;;;;;;15.84;62.70;100137.70;106220;1279;24271;-75
2022/07/10 05:59:06;;;;;;;2.90;1.40;;;;;;;15.82;62.62;100139.02;105974;1279;23071;-77
2022/07/10 06:01:32;;;;;;;3.10;1.40;;;;;;;15.83;62.85;100135.08;106396;1279;24045;-82
2022/07/10 06:03:58;;;;;;;3.50;1.20;;;;;;;15.86;62.87;100137.27;104925;1285;25638;-79
2022/07/10 06:06:25;;;;;;;4.60;1.10;;;;;;;15.88;62.84;100144.67;105021;1287;24369;-78
2022/07/10 06:08:51;;;;;;;4.80;1.50;;;;;;;15.89;62.74;100146.96;105342;1285;22627;-78
2022/07/10 06:11:17;;;;;;;2.70;1.30;;;;;;;15.87;62.75;100144.90;105604;1279;22678;-80
2022/07/10 06:13:44;;;;;;;3.30;1.70;;;;;;;15.89;62.87;100146.08;105509;1279;25390;-79
2022/07/10 06:16:10;;;;;;;3.80;1.40;;;;;;;15.89;62.99;100145.19;105733;1279;22554;-78
2022/07/10 06:18:37;;;;;;;3.10;1.60;;;;;;;15.88;62.88;100129.90;105779;1279;24436;-80
2022/07/10 06:21:04;;;;;;;2.10;1.50;;;;;;;15.97;63.33;100135.65;105308;1284;22920;-82
2022/07/10 06:23:30;;;;;;;4.60;1.70;;;;;;;16.05;63.12;100132.91;105770;1280;22704;-81
2022/07/10 06:25:57;;;;;;;3.70;1.50;;;;;;;16.10;62.94;100130.96;105553;1281;22984;-78
2022/07/10 06:28:23;;;;;;;4.40;1.30;;;;;;;16.17;62.88;100133.39;105745;1279;22576;-78
2022/07/10 06:30:49;;;;;;;3.80;1.20;;;;;;;16.20;62.39;100131.64;105532;1282;23201;-77
2022/07/10 06:33:15;;;;;;;2.80;1.40;;;;;;;16.16;62.00;100125.95;105853;1279;24255;-76
2022/07/10 06:35:42;;;;;;;3.70;2.10;;;;;;;16.20;62.17;100128.82;105693;1280;24753;-78
2022/07/10 06:38:09;;;;;;;5.20;1.70;;;;;;;16.23;62.36;100123.21;105858;1279;25597;-76
2022/07/10 06:40:37;;;;;;;3.30;2.10;;;;;;;16.27;62.51;100123.39;106373;1273;24284;-73
2022/07/10 06:43:03;;;;;;;5.00;2.40;;;;;;;16.35;62.50;100119.40;106503;1276;22844;-76
2022/07/10 06:45:30;;;;;;;3.60;2.30;;;;;;;16.38;62.28;100120.70;106195;1273;24359;-76
2022/07/10 06:47:57;;;;;;;3.80;2.50;;;;;;;16.40;62.49;100121.14;106093;1273;25503;-77
2022/07/10 06:50:32;;;;;;;4.40;2.90;;;;;;;16.46;62.40;100120.77;106272;1275;22557;-77
2022/07/10 06:52:58;;;;;;;5.90;2.90;;;;;;;16.53;62.60;100119.27;106349;1273;22700;-79
2022/07/10 06:55:26;;;;;;;4.40;3.00;;;;;;;16.56;62.36;100119.99;106193;1271;23368;-76
2022/07/10 06:57:54;;;;;;;5.90;2.70;;;;;;;16.58;62.12;100122.95;105849;1277;25390;-76
2022/07/10 07:00:21;;;;;;;2.90;2.40;;;;;;;16.59;62.21;100120.42;105171;1284;26544;-77
2022/07/10 07:02:47;;;;;;;10.30;2.70;;;;;;;16.62;62.10;100124.06;105289;1284;26659;-79
2022/07/10 07:05:13;;;;;;;4.20;2.40;;;;;;;16.60;61.95;100122.01;105223;1285;22561;-76
2022/07/10 07:07:40;;;;;;;3.70;2.40;;;;;;;16.61;61.62;100125.86;105075;1284;25334;-77
2022/07/10 07:10:08;;;;;;;7.40;2.90;;;;;;;16.64;61.21;100127.73;105296;1284;22554;-77
2022/07/10 07:12:34;;;;;;;3.60;2.30;;;;;;;16.61;60.89;100121.96;105203;1284;22732;-76
2022/07/10 07:15:00;;;;;;;3.90;2.50;;;;;;;16.63;61.10;100129.19;105170;1284;22694;-75
2022/07/10 07:17:33;;;;;;;5.70;2.60;;;;;;;16.65;60.83;100129.09;105850;1279;22775;-79
2022/07/10 07:25:31;;;;;;;3.90;2.50;;;;;;;16.65;61.10;100122.88;106248;1271;25744;-80
2022/07/10 07:27:57;;;;;;;4.70;2.60;;;;;;;16.78;61.07;100123.09;106509;1271;22541;-75
2022/07/10 07:30:23;;;;;;;3.80;1.80;;;;;;;16.89;60.81;100122.49;106149;1271;22565;-75
2022/07/10 07:32:50;;;;;;;2.10;1.90;;;;;;;16.90;60.26;100124.04;106120;1271;24417;-79
2022/07/10 07:35:17;;;;;;;3.00;2.30;;;;;;;16.89;60.09;100113.41;106159;1272;25396;-78
2022/07/10 07:37:45;;;;;;;3.50;2.50;;;;;;;16.88;60.05;100112.75;106222;1271;22577;-77
2022/07/10 07:40:14;;;;;;;5.90;2.40;;;;;;;16.88;59.88;100111.70;106321;1273;22679;-79
2022/07/10 07:42:40;;;;;;;3.90;2.10;;;;;;;16.89;60.17;100112.15;106163;1271;24246;-82
2022/07/10 07:45:08;;;;;;;3.00;2.40;;;;;;;16.97;60.30;100110.61;106157;1272;25439;-79
2022/07/10 07:47:49;;;;;;;3.70;2.10;;;;;;;17.01;59.77;100115.42;106155;1273;22640;-74
2022/07/10 07:50:25;;;;;;;5.30;2.00;;;;;;;17.08;59.99;100111.25;106423;1271;23062;-77
2022/07/10 07:52:52;;;;;;;4.80;2.40;;;;;;;17.19;60.15;100107.09;106156;1273;22623;-78
2022/07/10 07:55:20;;;;;;;3.90;2.20;;;;;;;17.39;60.12;100108.02;106264;1271;22632;-77
2022/07/10 07:57:47;;;;;;;4.60;2.20;;;;;;;17.43;59.25;100102.88;106118;1274;22576;-80
2022/07/10 08:00:18;;;;;;;4.10;1.80;;;;;;;17.43;58.67;100103.80;106232;1271;22548;-80
2022/07/10 08:02:44;;;;;;;3.50;1.50;;;;;;;17.46;58.46;100104.00;106203;1271;25638;-82
2022/07/10 08:05:11;;;;;;;6.30;1.90;;;;;;;17.43;58.15;100101.83;106344;1271;25623;-79
2022/07/10 08:07:44;;;;;;;5.60;2.00;;;;;;;17.39;58.08;100105.36;106116;1271;22717;-80
2022/07/10 08:10:16;;;;;;;2.80;1.60;;;;;;;17.39;57.52;100102.52;106099;1271;22623;-78
2022/07/10 08:12:45;;;;;;;3.80;1.60;;;;;;;17.52;57.92;100108.20;106222;1273;22561;-79
2022/07/10 08:15:13;;;;;;;4.00;1.60;;;;;;;17.65;58.08;100113.38;106418;1273;23984;-79
2022/07/10 08:17:39;;;;;;;2.50;1.60;;;;;;;17.70;57.39;100109.56;106274;1273;22545;-80
2022/07/10 08:20:08;;;;;;;3.50;1.50;;;;;;;17.73;57.00;100112.85;106263;1273;25663;-75
2022/07/10 08:22:34;;;;;;;3.80;1.40;;;;;;;17.63;56.51;100114.34;106050;1278;22579;-80
2022/07/10 08:25:00;;;;;;;2.20;1.50;;;;;;;17.46;56.74;100117.19;106111;1279;25880;-75
2022/07/10 08:27:27;;;;;;;3.70;1.40;;;;;;;17.33;57.10;100121.29;106750;1279;26548;-75
2022/07/10 08:29:53;;;;;;;5.90;1.80;;;;;;;17.20;57.46;100124.64;106260;1281;22534;-75
2022/07/10 08:32:21;;;;;;;5.20;1.60;;;;;;;17.03;58.32;100124.23;105839;1279;23108;-78
2022/07/10 08:34:48;;;;;;;4.10;1.50;;;;;;;16.93;59.56;100122.50;105510;1281;24258;-76
2022/07/10 08:37:15;;;;;;;3.50;1.50;;;;;;;16.87;59.72;100122.38;105613;1279;24278;-76
2022/07/10 08:39:41;;;;;;;4.50;1.50;;;;;;;16.88;59.99;100124.31;105348;1281;24236;-78
2022/07/10 08:42:11;;;;;;;4.10;1.80;;;;;;;16.92;60.01;100117.77;105878;1273;25270;-76
2022/07/10 08:44:38;;;;;;;5.00;1.40;;;;;;;16.92;60.29;100117.55;105997;1276;25675;-81
2022/07/10 08:47:05;;;;;;;3.00;1.40;;;;;;;16.87;60.47;100116.34;106016;1273;22690;-78
2022/07/10 08:49:35;;;;;;;3.60;1.60;;;;;;;16.89;60.89;100118.39;106115;1276;23090;-77
2022/07/10 08:52:08;;;;;;;6.20;1.70;;;;;;;17.09;61.60;100113.73;105973;1273;23073;-79
2022/07/10 08:54:37;;;;;;;3.80;1.20;;;;;;;17.38;61.80;100118.05;106034;1273;25757;-77
2022/07/10 08:57:03;;;;;;;3.10;1.50;;;;;;;17.66;61.10;100109.91;106084;1273;22705;-81
2022/07/10 08:59:30;;;;;;;3.50;1.90;;;;;;;17.88;60.28;100105.04;105887;1273;25273;-73
2022/07/10 09:01:58;;;;;;;3.90;1.80;;;;;;;18.03;59.53;100097.10;106065;1272;25512;-76
2022/07/10 09:04:27;;;;;;;3.90;1.70;;;;;;;18.29;58.96;100093.50;105949;1276;22591;-75
2022/07/10 09:06:55;;;;;;;4.80;1.50;;;;;;;18.49;57.88;100092.40;106088;1274;25327;-75
2022/07/10 09:09:23;;;;;;;6.30;1.80;;;;;;;18.67;57.22;100092.08;106287;1274;26986;-83
2022/07/10 09:11:57;;;;;;;5.00;1.60;;;;;;;18.84;55.93;100084.29;106135;1274;22629;-76
2022/07/10 09:14:27;;;;;;;4.20;1.30;;;;;;;19.03;55.61;100086.98;106378;1272;22568;-75
2022/07/10 09:17:02;;;;;;;2.60;1.50;;;;;;;19.07;53.96;100082.85;106215;1275;22555;-79
2022/07/10 09:19:29;;;;;;;3.90;1.90;;;;;;;18.89;53.04;100089.04;106407;1273;22667;-76
2022/07/10 09:22:07;;;;;;;1.90;1.30;;;;;;;18.88;52.88;100088.23;106582;1273;23875;-75
2022/07/10 09:24:38;;;;;;;3.80;1.20;;;;;;;19.00;52.37;100089.23;106666;1272;22573;-77
2022/07/10 09:27:04;;;;;;;2.60;1.30;;;;;;;19.18;51.80;100091.08;106436;1274;22716;-75
2022/07/10 09:29:32;;;;;;;2.40;1.00;;;;;;;19.18;51.49;100083.91;106294;1273;22557;-78
2022/07/10 09:32:01;;;;;;;5.50;1.10;;;;;;;19.15;51.32;100080.16;106120;1275;22581;-78
2022/07/10 09:34:42;;;;;;;3.20;1.10;;;;;;;19.11;51.14;100079.61;106365;1274;24236;-74
2022/07/10 09:37:18;;;;;;;3.30;1.10;;;;;;;19.00;50.84;100079.96;106275;1275;24091;-75
2022/07/10 09:40:04;;;;;;;3.10;1.00;;;;;;;18.67;50.39;100081.73;106612;1271;22696;-75
2022/07/10 09:42:34;;;;;;;1.70;1.10;;;;;;;18.39;51.16;100082.89;106616;1274;23261;-73
2022/07/10 09:45:13;;;;;;;2.60;1.30;;;;;;;18.21;51.35;100086.91;106782;1274;24363;-75
2022/07/10 09:47:40;;;;;;;2.80;1.20;;;;;;;18.01;51.28;100093.08;106280;1281;22774;-73
2022/07/10 09:50:27;;;;;;;1.90;0.60;;;;;;;17.86;50.62;100088.60;105899;1279;22764;-77
2022/07/10 09:52:54;;;;;;;;;;;;;;;17.77;50.17;100088.44;105890;1281;24294;-76
2022/07/10 09:55:22;;;;;;;2.20;0.50;;;;;;;17.73;50.08;100088.84;105879;1281;25508;-74
2022/07/10 09:58:02;;;;;;;2.00;0.90;;;;;;;17.73;50.13;100090.44;106210;1281;24284;-74
2022/07/10 10:00:36;;;;;;;2.70;1.10;;;;;;;17.74;50.03;100085.54;105578;1281;22981;-75
2022/07/10 10:03:08;;;;;;;2.30;0.90;;;;;;;17.76;50.08;100082.06;105857;1281;25490;-74
2022/07/10 10:05:54;;;;;;;1.90;0.60;;;;;;;17.80;50.42;100083.69;105691;1278;22541;-75
2022/07/10 10:08:36;;;;;;;4.80;0.80;;;;;;;17.86;50.45;100083.44;106038;1274;24307;-77
2022/07/10 10:11:04;;;;;;;3.00;1.40;;;;;;;17.88;49.24;100080.14;106131;1274;25221;-78
2022/07/10 10:13:30;;;;;;;2.20;0.90;;;;;;;17.87;48.74;100080.01;106106;1274;25314;-75
2022/07/10 10:15:57;;;;;;;2.30;1.10;;;;;;;18.06;48.74;100081.66;106069;1274;26891;-75
2022/07/10 10:18:25;;;;;;;1.70;0.80;;;;;;;18.15;49.08;100080.38;106191;1271;22563;-75
2022/07/10 10:20:55;;;;;;;1.30;0.70;;;;;;;18.18;48.23;100082.20;106698;1271;22597;-87
2022/07/10 10:23:24;;;;;;;1.90;0.80;;;;;;;18.34;47.03;100080.78;106415;1272;25600;-75
2022/07/10 10:25:54;;;;;;;1.60;0.40;;;;;;;18.54;46.52;100079.11;106264;1274;22569;-75
2022/07/10 10:28:23;;;;;;;1.10;0.40;;;;;;;18.73;46.42;100080.55;106484;1271;23473;-79
2022/07/10 10:30:57;;;;;;;1.70;0.60;;;;;;;18.58;45.93;100085.01;105854;1278;24498;-74
2022/07/10 10:33:32;;;;;;;0.60;0.40;;;;;;;18.66;45.27;100080.55;106187;1278;25582;-75
2022/07/10 10:35:59;;;;;;;2.10;0.60;;;;;;;18.84;45.19;100080.36;105839;1277;24280;-75
2022/07/10 10:38:55;;;;;;;3.40;0.60;;;;;;;19.14;45.65;100077.53;105865;1281;22549;-75
2022/07/10 10:41:49;;;;;;;0.60;0.50;;;;;;;19.45;44.58;100082.23;105732;1284;25438;-73
2022/07/10 10:44:17;;;;;;;3.10;1.00;;;;;;;19.27;45.28;100082.45;105334;1283;24164;-76
2022/07/10 10:46:49;;;;;;;2.20;0.90;;;;;;;19.15;45.90;100079.79;105429;1284;24318;-72
2022/07/10 10:49:20;;;;;;;3.40;0.90;;;;;;;19.09;46.82;100080.08;105420;1281;24247;-74
2022/07/10 10:52:03;;;;;;;6.10;1.00;;;;;;;19.02;47.37;100081.82;105804;1278;22557;-74
2022/07/10 10:54:55;;;;;;;5.50;1.00;;;;;;;19.08;47.99;100078.70;105706;1281;25653;-78
2022/07/10 10:57:23;;;;;;;1.50;1.10;;;;;;;19.23;48.22;100077.95;105702;1281;22721;-72
2022/07/10 10:59:55;;;;;;;3.70;1.10;;;;;;;19.44;47.94;100081.91;105899;1274;25380;-75
2022/07/10 11:02:24;;;;;;;3.20;1.20;;;;;;;19.58;47.72;100081.08;105508;1281;22573;-77
2022/07/10 11:04:51;;;;;;;4.00;0.80;;;;;;;19.61;47.44;100079.47;105774;1281;24402;-78
2022/07/10 11:07:55;;;;;;;1.90;1.00;;;;;;;19.76;47.55;100077.80;105475;1281;23103;-77
2022/07/10 11:10:33;;;;;;;3.30;1.00;;;;;;;19.95;46.92;100074.27;105531;1281;23992;-73
2022/07/10 11:13:07;;;;;;;2.00;0.90;;;;;;;20.11;46.42;100070.09;105459;1284;22581;-79
2022/07/10 11:15:39;;;;;;;1.20;0.70;;;;;;;20.14;44.71;100064.92;105638;1280;22615;-82
2022/07/10 11:18:07;;;;;;;3.00;1.00;;;;;;;19.99;43.23;100056.23;105698;1281;25405;-72
2022/07/10 11:20:39;;;;;;;2.20;0.80;;;;;;;19.86;42.82;100064.56;105526;1281;22652;-78
2022/07/10 11:23:14;;;;;;;3.40;1.00;;;;;;;19.73;43.09;100064.19;105164;1284;24381;-74
2022/07/10 11:26:09;;;;;;;5.40;1.30;;;;;;;19.69;43.76;100064.04;105172;1284;22608;-74
2022/07/10 11:28:58;;;;;;;3.70;0.70;;;;;;;19.69;43.48;100061.73;105794;1281;25359;-75
2022/07/10 11:31:26;;;;;;;2.30;0.90;;;;;;;19.75;43.80;100060.67;105704;1281;25422;-74
2022/07/10 11:33:54;;;;;;;1.60;0.80;;;;;;;19.76;43.37;100057.39;105701;1281;25534;-75